Portada
METAR-TAF:

METAR-TAF

Aeropuertos :

Gafsa, Túnez

latitud: 34-25N, longitud: 008-49E, altitud: 313 m

Observación

El informe se hizo hace 55 minutos, a las 14:00 UTC
Viento 10 kt del este, variando entre noreste y sur
Temperatura 35°C
Humedad 27%
Presión 1017 hPa
Visibilidad 10 km o más
sin nubes por debajo de 1500 m y sin presencia de cumulonimbus.

METAR: DTTF 131400Z 09010KT 040V180 CAVOK 35/13 Q1017

Hora: 15:55 (14:55 UTC)

Pronóstico

El informe se hizo hace 2 horas y 55 minutos, a las 12:00 UTC
Pronóstico válido del 13 a las 13 UTC al 13 a las 22 UTC
Viento 12 kt del este
Visibilidad: 8000 m
Escasas nubes a una altura de 3300 ft

TAF: DTTF 131200Z 1313/1322 08012KT 8000 FEW033

Observaciones y pronósticos meteorológicos de más de 4000 aeropuertos (mensajes METAR y TAF).

Los puntos amarillos y rojos representan las estaciones disponibles.

Ponga el ratón en el punto deseado para ver el nombre de la estación.

Haga clic para ver las observaciones y los pronósticos meteorológicos.

Para cambiar el mapa : haga clic en los botones verdes con una cruz de color negro para hacer un zoom, en el botón verde con un guión para alejar o en las flechas verdes para mapas adyacentes.


METAR-TAF: